sensor_id;sensor_type;location;lat;lon;timestamp;temperature;humidity
77839;SHT31;67034;43.226;27.932;2024-03-02T00:00:00;11.18;73.85
77839;SHT31;67034;43.226;27.932;2024-03-02T00:02:29;11.17;73.39
77839;SHT31;67034;43.226;27.932;2024-03-02T00:04:56;11.04;73.73
77839;SHT31;67034;43.226;27.932;2024-03-02T00:07:22;11.07;74.03
77839;SHT31;67034;43.226;27.932;2024-03-02T00:09:53;11.14;73.88
77839;SHT31;67034;43.226;27.932;2024-03-02T00:12:19;11.12;73.51
77839;SHT31;67034;43.226;27.932;2024-03-02T00:14:46;11.06;73.67
77839;SHT31;67034;43.226;27.932;2024-03-02T00:17:20;10.96;73.98
77839;SHT31;67034;43.226;27.932;2024-03-02T00:19:48;11.01;74.12
77839;SHT31;67034;43.226;27.932;2024-03-02T00:22:14;11.06;73.99
77839;SHT31;67034;43.226;27.932;2024-03-02T00:24:40;11.14;73.87
77839;SHT31;67034;43.226;27.932;2024-03-02T00:27:07;11.21;73.64
77839;SHT31;67034;43.226;27.932;2024-03-02T00:29:34;11.29;73.53
77839;SHT31;67034;43.226;27.932;2024-03-02T00:32:00;11.35;73.38
77839;SHT31;67034;43.226;27.932;2024-03-02T00:34:26;11.38;73.03
77839;SHT31;67034;43.226;27.932;2024-03-02T00:36:57;11.31;73.11
77839;SHT31;67034;43.226;27.932;2024-03-02T00:39:23;11.31;73.07
77839;SHT31;67034;43.226;27.932;2024-03-02T00:41:48;11.31;73.10
77839;SHT31;67034;43.226;27.932;2024-03-02T00:44:15;11.29;73.11
77839;SHT31;67034;43.226;27.932;2024-03-02T00:46:42;11.28;73.23
77839;SHT31;67034;43.226;27.932;2024-03-02T00:49:16;11.31;73.24
77839;SHT31;67034;43.226;27.932;2024-03-02T00:51:46;11.31;73.32
77839;SHT31;67034;43.226;27.932;2024-03-02T00:54:19;11.39;73.06
77839;SHT31;67034;43.226;27.932;2024-03-02T00:56:45;11.38;73.04
77839;SHT31;67034;43.226;27.932;2024-03-02T00:59:11;11.36;73.03
77839;SHT31;67034;43.226;27.932;2024-03-02T01:01:37;11.35;73.02
77839;SHT31;67034;43.226;27.932;2024-03-02T01:04:03;11.40;72.87
77839;SHT31;67034;43.226;27.932;2024-03-02T01:06:30;11.40;72.58
77839;SHT31;67034;43.226;27.932;2024-03-02T01:08:56;11.35;72.50
77839;SHT31;67034;43.226;27.932;2024-03-02T01:11:23;11.28;72.57
77839;SHT31;67034;43.226;27.932;2024-03-02T01:13:49;11.25;72.90
77839;SHT31;67034;43.226;27.932;2024-03-02T01:16:15;11.18;72.92
77839;SHT31;67034;43.226;27.932;2024-03-02T01:18:41;11.15;73.25
77839;SHT31;67034;43.226;27.932;2024-03-02T01:21:07;11.15;73.35
77839;SHT31;67034;43.226;27.932;2024-03-02T01:23:32;11.19;73.37
77839;SHT31;67034;43.226;27.932;2024-03-02T01:25:58;11.18;73.39
77839;SHT31;67034;43.226;27.932;2024-03-02T01:28:25;11.18;73.51
77839;SHT31;67034;43.226;27.932;2024-03-02T01:30:51;11.19;73.37
77839;SHT31;67034;43.226;27.932;2024-03-02T01:33:17;11.21;73.50
77839;SHT31;67034;43.226;27.932;2024-03-02T01:35:43;11.28;73.36
77839;SHT31;67034;43.226;27.932;2024-03-02T01:38:09;11.25;73.30
77839;SHT31;67034;43.226;27.932;2024-03-02T01:40:35;11.22;73.45
77839;SHT31;67034;43.226;27.932;2024-03-02T01:43:01;11.12;73.31
77839;SHT31;67034;43.226;27.932;2024-03-02T01:45:29;11.00;73.73
77839;SHT31;67034;43.226;27.932;2024-03-02T01:47:55;10.97;74.06
77839;SHT31;67034;43.226;27.932;2024-03-02T01:50:27;11.08;74.05
77839;SHT31;67034;43.226;27.932;2024-03-02T01:52:54;11.08;73.81
77839;SHT31;67034;43.226;27.932;2024-03-02T01:55:20;11.04;73.89
77839;SHT31;67034;43.226;27.932;2024-03-02T01:57:46;10.93;73.98
77839;SHT31;67034;43.226;27.932;2024-03-02T02:00:14;10.80;74.37
77839;SHT31;67034;43.226;27.932;2024-03-02T02:02:41;10.73;74.51
77839;SHT31;67034;43.226;27.932;2024-03-02T02:05:07;10.64;74.61
77839;SHT31;67034;43.226;27.932;2024-03-02T02:07:33;10.59;74.78
77839;SHT31;67034;43.226;27.932;2024-03-02T02:10:00;10.59;74.87
77839;SHT31;67034;43.226;27.932;2024-03-02T02:12:26;10.57;74.73
77839;SHT31;67034;43.226;27.932;2024-03-02T02:14:52;10.50;74.76
77839;SHT31;67034;43.226;27.932;2024-03-02T02:17:18;10.36;74.74
77839;SHT31;67034;43.226;27.932;2024-03-02T02:19:45;10.20;75.52
77839;SHT31;67034;43.226;27.932;2024-03-02T02:22:12;10.22;75.67
77839;SHT31;67034;43.226;27.932;2024-03-02T02:24:40;10.12;75.97
77839;SHT31;67034;43.226;27.932;2024-03-02T02:27:06;10.15;76.24
77839;SHT31;67034;43.226;27.932;2024-03-02T02:29:32;10.15;76.19
77839;SHT31;67034;43.226;27.932;2024-03-02T02:31:57;10.08;76.48
77839;SHT31;67034;43.226;27.932;2024-03-02T02:34:23;10.09;76.43
77839;SHT31;67034;43.226;27.932;2024-03-02T02:36:49;10.11;76.46
77839;SHT31;67034;43.226;27.932;2024-03-02T02:39:18;10.06;76.56
77839;SHT31;67034;43.226;27.932;2024-03-02T02:41:44;10.06;76.57
77839;SHT31;67034;43.226;27.932;2024-03-02T02:44:10;10.06;76.62
77839;SHT31;67034;43.226;27.932;2024-03-02T02:46:38;9.92;77.00
77839;SHT31;67034;43.226;27.932;2024-03-02T02:49:04;9.90;77.33
77839;SHT31;67034;43.226;27.932;2024-03-02T02:51:29;9.92;77.40
77839;SHT31;67034;43.226;27.932;2024-03-02T02:53:55;10.01;77.44
77839;SHT31;67034;43.226;27.932;2024-03-02T02:56:22;10.03;77.24
77839;SHT31;67034;43.226;27.932;2024-03-02T02:58:48;10.03;77.25
77839;SHT31;67034;43.226;27.932;2024-03-02T03:01:14;10.11;77.45
77839;SHT31;67034;43.226;27.932;2024-03-02T03:03:40;10.28;77.25
77839;SHT31;67034;43.226;27.932;2024-03-02T03:06:06;10.39;76.92
77839;SHT31;67034;43.226;27.932;2024-03-02T03:08:32;10.43;76.63
77839;SHT31;67034;43.226;27.932;2024-03-02T03:10:57;10.40;76.62
77839;SHT31;67034;43.226;27.932;2024-03-02T03:13:24;10.38;76.52
77839;SHT31;67034;43.226;27.932;2024-03-02T03:15:50;10.33;76.68
77839;SHT31;67034;43.226;27.932;2024-03-02T03:18:16;10.30;76.83
77839;SHT31;67034;43.226;27.932;2024-03-02T03:20:42;10.36;76.78
77839;SHT31;67034;43.226;27.932;2024-03-02T03:23:08;10.46;76.79
77839;SHT31;67034;43.226;27.932;2024-03-02T03:25:34;10.56;76.40
77839;SHT31;67034;43.226;27.932;2024-03-02T03:27:59;10.61;76.19
77839;SHT31;67034;43.226;27.932;2024-03-02T03:30:29;10.61;75.58
77839;SHT31;67034;43.226;27.932;2024-03-02T03:32:54;10.39;75.75
77839;SHT31;67034;43.226;27.932;2024-03-02T03:35:20;10.26;76.17
77839;SHT31;67034;43.226;27.932;2024-03-02T03:37:46;10.22;76.35
77839;SHT31;67034;43.226;27.932;2024-03-02T03:40:11;10.15;76.55
77839;SHT31;67034;43.226;27.932;2024-03-02T03:42:39;10.19;76.64
77839;SHT31;67034;43.226;27.932;2024-03-02T03:45:06;10.12;76.61
77839;SHT31;67034;43.226;27.932;2024-03-02T03:47:34;10.18;76.83
77839;SHT31;67034;43.226;27.932;2024-03-02T03:50:00;10.29;76.70
77839;SHT31;67034;43.226;27.932;2024-03-02T03:52:25;10.43;76.28
77839;SHT31;67034;43.226;27.932;2024-03-02T03:54:51;10.39;75.80
77839;SHT31;67034;43.226;27.932;2024-03-02T03:57:17;10.23;75.90
77839;SHT31;67034;43.226;27.932;2024-03-02T03:59:43;10.15;76.30
77839;SHT31;67034;43.226;27.932;2024-03-02T04:02:09;10.23;76.30
77839;SHT31;67034;43.226;27.932;2024-03-02T04:04:38;10.38;76.17
77839;SHT31;67034;43.226;27.932;2024-03-02T04:07:04;10.32;75.70
77839;SHT31;67034;43.226;27.932;2024-03-02T04:09:29;10.19;75.86
77839;SHT31;67034;43.226;27.932;2024-03-02T04:11:55;10.05;76.29
77839;SHT31;67034;43.226;27.932;2024-03-02T04:14:21;10.09;76.61
77839;SHT31;67034;43.226;27.932;2024-03-02T04:16:47;10.19;76.44
77839;SHT31;67034;43.226;27.932;2024-03-02T04:19:12;10.22;76.07
77839;SHT31;67034;43.226;27.932;2024-03-02T04:21:39;10.28;75.95
77839;SHT31;67034;43.226;27.932;2024-03-02T04:24:05;10.29;75.93
77839;SHT31;67034;43.226;27.932;2024-03-02T04:26:31;10.28;75.64
77839;SHT31;67034;43.226;27.932;2024-03-02T04:28:57;10.29;75.65
77839;SHT31;67034;43.226;27.932;2024-03-02T04:31:22;10.22;75.70
77839;SHT31;67034;43.226;27.932;2024-03-02T04:33:48;10.15;75.66
77839;SHT31;67034;43.226;27.932;2024-03-02T04:36:14;10.18;75.86
77839;SHT31;67034;43.226;27.932;2024-03-02T04:38:41;10.18;75.61
77839;SHT31;67034;43.226;27.932;2024-03-02T04:41:07;10.13;75.81
77839;SHT31;67034;43.226;27.932;2024-03-02T04:43:33;10.15;75.80
77839;SHT31;67034;43.226;27.932;2024-03-02T04:45:59;10.16;75.73
77839;SHT31;67034;43.226;27.932;2024-03-02T04:48:25;10.19;75.63
77839;SHT31;67034;43.226;27.932;2024-03-02T04:50:51;10.09;75.44
77839;SHT31;67034;43.226;27.932;2024-03-02T04:53:16;10.06;75.77
77839;SHT31;67034;43.226;27.932;2024-03-02T04:55:44;10.06;75.80
77839;SHT31;67034;43.226;27.932;2024-03-02T04:58:09;10.01;75.66
77839;SHT31;67034;43.226;27.932;2024-03-02T05:00:35;9.94;75.83
77839;SHT31;67034;43.226;27.932;2024-03-02T05:03:01;9.91;76.05
77839;SHT31;67034;43.226;27.932;2024-03-02T05:05:27;9.98;75.87
77839;SHT31;67034;43.226;27.932;2024-03-02T05:07:52;10.03;75.60
77839;SHT31;67034;43.226;27.932;2024-03-02T05:10:18;10.09;75.61
77839;SHT31;67034;43.226;27.932;2024-03-02T05:12:45;10.05;75.48
77839;SHT31;67034;43.226;27.932;2024-03-02T05:15:12;10.01;75.72
77839;SHT31;67034;43.226;27.932;2024-03-02T05:17:38;9.88;75.91
77839;SHT31;67034;43.226;27.932;2024-03-02T05:20:05;9.87;76.14
77839;SHT31;67034;43.226;27.932;2024-03-02T05:22:31;9.84;76.10
77839;SHT31;67034;43.226;27.932;2024-03-02T05:24:57;9.81;76.23
77839;SHT31;67034;43.226;27.932;2024-03-02T05:27:24;9.87;76.29
77839;SHT31;67034;43.226;27.932;2024-03-02T05:29:52;9.84;76.22
77839;SHT31;67034;43.226;27.932;2024-03-02T05:32:17;9.73;76.30
77839;SHT31;67034;43.226;27.932;2024-03-02T05:34:43;9.77;76.59
77839;SHT31;67034;43.226;27.932;2024-03-02T05:37:09;9.84;76.26
77839;SHT31;67034;43.226;27.932;2024-03-02T05:39:34;9.78;76.24
77839;SHT31;67034;43.226;27.932;2024-03-02T05:42:00;9.73;76.39
77839;SHT31;67034;43.226;27.932;2024-03-02T05:44:26;9.64;76.69
77839;SHT31;67034;43.226;27.932;2024-03-02T05:46:53;9.63;76.67
77839;SHT31;67034;43.226;27.932;2024-03-02T05:49:19;9.64;76.78
77839;SHT31;67034;43.226;27.932;2024-03-02T05:51:44;9.65;76.78
77839;SHT31;67034;43.226;27.932;2024-03-02T05:54:10;9.69;76.87
77839;SHT31;67034;43.226;27.932;2024-03-02T05:56:36;9.70;76.82
77839;SHT31;67034;43.226;27.932;2024-03-02T05:59:02;9.69;76.85
77839;SHT31;67034;43.226;27.932;2024-03-02T06:01:41;9.71;76.94
77839;SHT31;67034;43.226;27.932;2024-03-02T06:04:08;9.77;76.93
77839;SHT31;67034;43.226;27.932;2024-03-02T06:06:34;9.82;76.76
77839;SHT31;67034;43.226;27.932;2024-03-02T06:09:00;9.90;76.73
77839;SHT31;67034;43.226;27.932;2024-03-02T06:11:26;9.98;76.70
77839;SHT31;67034;43.226;27.932;2024-03-02T06:13:52;10.02;76.54
77839;SHT31;67034;43.226;27.932;2024-03-02T06:16:17;10.19;76.40
77839;SHT31;67034;43.226;27.932;2024-03-02T06:18:43;10.28;76.10
77839;SHT31;67034;43.226;27.932;2024-03-02T06:21:10;10.23;75.89
77839;SHT31;67034;43.226;27.932;2024-03-02T06:23:36;10.29;76.07
77839;SHT31;67034;43.226;27.932;2024-03-02T06:26:02;10.35;75.76
77839;SHT31;67034;43.226;27.932;2024-03-02T06:28:28;10.25;75.81
77839;SHT31;67034;43.226;27.932;2024-03-02T06:30:53;10.36;75.79
77839;SHT31;67034;43.226;27.932;2024-03-02T06:33:19;10.43;75.76
77839;SHT31;67034;43.226;27.932;2024-03-02T06:35:45;10.63;75.58
77839;SHT31;67034;43.226;27.932;2024-03-02T06:38:12;10.73;75.13
77839;SHT31;67034;43.226;27.932;2024-03-02T06:40:38;10.77;74.90
77839;SHT31;67034;43.226;27.932;2024-03-02T06:43:05;10.90;74.91
77839;SHT31;67034;43.226;27.932;2024-03-02T06:45:30;10.91;74.44
77839;SHT31;67034;43.226;27.932;2024-03-02T06:47:56;10.91;74.52
77839;SHT31;67034;43.226;27.932;2024-03-02T06:50:22;11.00;74.48
77839;SHT31;67034;43.226;27.932;2024-03-02T06:52:48;11.21;74.37
77839;SHT31;67034;43.226;27.932;2024-03-02T06:55:15;11.25;73.76
77839;SHT31;67034;43.226;27.932;2024-03-02T06:57:41;11.25;73.70
77839;SHT31;67034;43.226;27.932;2024-03-02T07:00:07;11.34;73.62
77839;SHT31;67034;43.226;27.932;2024-03-02T07:02:34;11.36;73.41
77839;SHT31;67034;43.226;27.932;2024-03-02T07:05:00;11.45;73.13
77839;SHT31;67034;43.226;27.932;2024-03-02T07:07:25;11.46;73.07
77839;SHT31;67034;43.226;27.932;2024-03-02T07:09:51;11.65;72.83
77839;SHT31;67034;43.226;27.932;2024-03-02T07:12:18;11.72;72.17
77839;SHT31;67034;43.226;27.932;2024-03-02T07:14:44;11.86;72.07
77839;SHT31;67034;43.226;27.932;2024-03-02T07:17:30;11.91;71.56
77839;SHT31;67034;43.226;27.932;2024-03-02T07:19:56;11.93;71.44
77839;SHT31;67034;43.226;27.932;2024-03-02T07:22:22;12.08;71.42
77839;SHT31;67034;43.226;27.932;2024-03-02T07:24:48;12.14;71.03
77839;SHT31;67034;43.226;27.932;2024-03-02T07:27:15;12.18;71.01
77839;SHT31;67034;43.226;27.932;2024-03-02T07:29:43;12.34;70.64
77839;SHT31;67034;43.226;27.932;2024-03-02T07:32:10;12.28;70.11
77839;SHT31;67034;43.226;27.932;2024-03-02T07:34:36;12.33;70.11
77839;SHT31;67034;43.226;27.932;2024-03-02T07:37:03;12.34;70.02
77839;SHT31;67034;43.226;27.932;2024-03-02T07:39:29;12.41;69.71
77839;SHT31;67034;43.226;27.932;2024-03-02T07:41:55;12.44;69.60
77839;SHT31;67034;43.226;27.932;2024-03-02T07:44:21;12.45;69.16
77839;SHT31;67034;43.226;27.932;2024-03-02T07:46:48;12.52;69.06
77839;SHT31;67034;43.226;27.932;2024-03-02T07:49:17;12.51;68.39
77839;SHT31;67034;43.226;27.932;2024-03-02T07:51:43;12.41;68.93
77839;SHT31;67034;43.226;27.932;2024-03-02T07:54:09;12.55;68.53
77839;SHT31;67034;43.226;27.932;2024-03-02T07:56:35;12.62;68.09
77839;SHT31;67034;43.226;27.932;2024-03-02T07:59:01;12.58;67.70
77839;SHT31;67034;43.226;27.932;2024-03-02T08:01:26;12.59;67.81
77839;SHT31;67034;43.226;27.932;2024-03-02T08:03:54;12.72;67.93
77839;SHT31;67034;43.226;27.932;2024-03-02T08:06:20;12.65;67.75
77839;SHT31;67034;43.226;27.932;2024-03-02T08:08:47;12.59;68.03
77839;SHT31;67034;43.226;27.932;2024-03-02T08:11:13;12.58;67.93
77839;SHT31;67034;43.226;27.932;2024-03-02T08:13:38;12.61;67.55
77839;SHT31;67034;43.226;27.932;2024-03-02T08:16:04;12.65;67.20
77839;SHT31;67034;43.226;27.932;2024-03-02T08:18:33;12.71;67.68
77839;SHT31;67034;43.226;27.932;2024-03-02T08:21:00;12.76;67.18
77839;SHT31;67034;43.226;27.932;2024-03-02T08:23:26;12.76;67.06
77839;SHT31;67034;43.226;27.932;2024-03-02T08:25:51;12.88;67.08
77839;SHT31;67034;43.226;27.932;2024-03-02T08:28:17;12.91;66.90
77839;SHT31;67034;43.226;27.932;2024-03-02T08:30:43;13.12;66.67
77839;SHT31;67034;43.226;27.932;2024-03-02T08:33:09;13.24;66.26
77839;SHT31;67034;43.226;27.932;2024-03-02T08:35:34;13.28;65.97
77839;SHT31;67034;43.226;27.932;2024-03-02T08:38:03;13.39;65.68
77839;SHT31;67034;43.226;27.932;2024-03-02T08:40:30;13.37;65.78
77839;SHT31;67034;43.226;27.932;2024-03-02T08:42:55;13.58;65.57
77839;SHT31;67034;43.226;27.932;2024-03-02T08:45:21;13.75;65.14
77839;SHT31;67034;43.226;27.932;2024-03-02T08:47:48;13.85;64.82
77839;SHT31;67034;43.226;27.932;2024-03-02T08:50:14;14.02;64.44
77839;SHT31;67034;43.226;27.932;2024-03-02T08:52:39;14.19;63.98
77839;SHT31;67034;43.226;27.932;2024-03-02T08:55:07;14.23;63.57
77839;SHT31;67034;43.226;27.932;2024-03-02T08:57:33;14.23;62.75
77839;SHT31;67034;43.226;27.932;2024-03-02T08:59:59;14.05;62.81
77839;SHT31;67034;43.226;27.932;2024-03-02T09:02:25;13.98;62.76
77839;SHT31;67034;43.226;27.932;2024-03-02T09:04:51;13.99;63.09
77839;SHT31;67034;43.226;27.932;2024-03-02T09:07:18;14.05;63.04
77839;SHT31;67034;43.226;27.932;2024-03-02T09:09:44;14.19;62.77
77839;SHT31;67034;43.226;27.932;2024-03-02T09:12:11;14.20;62.07
77839;SHT31;67034;43.226;27.932;2024-03-02T09:14:37;14.16;62.06
77839;SHT31;67034;43.226;27.932;2024-03-02T09:17:03;14.41;61.90
77839;SHT31;67034;43.226;27.932;2024-03-02T09:19:29;14.53;61.20
77839;SHT31;67034;43.226;27.932;2024-03-02T09:21:55;14.61;60.87
77839;SHT31;67034;43.226;27.932;2024-03-02T09:24:24;14.74;60.55
77839;SHT31;67034;43.226;27.932;2024-03-02T09:26:50;14.83;60.36
77839;SHT31;67034;43.226;27.932;2024-03-02T09:29:17;14.91;59.86
77839;SHT31;67034;43.226;27.932;2024-03-02T09:31:43;14.99;59.10
77839;SHT31;67034;43.226;27.932;2024-03-02T09:34:09;15.05;59.02
77839;SHT31;67034;43.226;27.932;2024-03-02T09:36:35;15.05;59.05
77839;SHT31;67034;43.226;27.932;2024-03-02T09:39:00;15.02;58.75
77839;SHT31;67034;43.226;27.932;2024-03-02T09:41:26;15.07;59.08
77839;SHT31;67034;43.226;27.932;2024-03-02T09:43:53;15.25;58.27
77839;SHT31;67034;43.226;27.932;2024-03-02T09:46:21;15.40;57.77
77839;SHT31;67034;43.226;27.932;2024-03-02T09:48:46;15.53;57.39
77839;SHT31;67034;43.226;27.932;2024-03-02T09:51:13;15.70;57.27
77839;SHT31;67034;43.226;27.932;2024-03-02T09:53:40;15.70;56.78
77839;SHT31;67034;43.226;27.932;2024-03-02T09:56:06;15.89;56.27
77839;SHT31;67034;43.226;27.932;2024-03-02T09:58:31;15.80;56.04
77839;SHT31;67034;43.226;27.932;2024-03-02T10:00:57;15.71;55.82
77839;SHT31;67034;43.226;27.932;2024-03-02T10:03:24;15.74;56.00
77839;SHT31;67034;43.226;27.932;2024-03-02T10:05:50;15.77;55.97
77839;SHT31;67034;43.226;27.932;2024-03-02T10:08:17;15.84;55.45
77839;SHT31;67034;43.226;27.932;2024-03-02T10:10:42;15.86;55.02
77839;SHT31;67034;43.226;27.932;2024-03-02T10:13:10;15.76;54.75
77839;SHT31;67034;43.226;27.932;2024-03-02T10:15:37;15.63;55.13
77839;SHT31;67034;43.226;27.932;2024-03-02T10:18:03;15.49;55.58
77839;SHT31;67034;43.226;27.932;2024-03-02T10:20:30;15.55;55.26
77839;SHT31;67034;43.226;27.932;2024-03-02T10:23:10;15.67;55.05
77839;SHT31;67034;43.226;27.932;2024-03-02T10:25:36;15.70;54.86
77839;SHT31;67034;43.226;27.932;2024-03-02T10:28:02;15.73;55.04
77839;SHT31;67034;43.226;27.932;2024-03-02T10:30:30;15.83;55.20
77839;SHT31;67034;43.226;27.932;2024-03-02T10:32:56;15.87;55.45
77839;SHT31;67034;43.226;27.932;2024-03-02T10:35:22;15.93;55.78
77839;SHT31;67034;43.226;27.932;2024-03-02T10:37:53;15.98;55.91
77839;SHT31;67034;43.226;27.932;2024-03-02T10:40:21;15.93;56.18
77839;SHT31;67034;43.226;27.932;2024-03-02T10:42:47;15.96;56.37
77839;SHT31;67034;43.226;27.932;2024-03-02T10:45:15;16.05;56.39
77839;SHT31;67034;43.226;27.932;2024-03-02T10:47:42;15.89;56.68
77839;SHT31;67034;43.226;27.932;2024-03-02T10:50:08;15.74;57.11
77839;SHT31;67034;43.226;27.932;2024-03-02T10:52:34;15.62;57.20
77839;SHT31;67034;43.226;27.932;2024-03-02T10:55:02;15.67;57.26
77839;SHT31;67034;43.226;27.932;2024-03-02T10:57:35;15.63;57.30
77839;SHT31;67034;43.226;27.932;2024-03-02T11:00:06;15.53;57.64
77839;SHT31;67034;43.226;27.932;2024-03-02T11:02:35;15.47;57.90
77839;SHT31;67034;43.226;27.932;2024-03-02T11:05:06;15.69;57.59
77839;SHT31;67034;43.226;27.932;2024-03-02T11:07:33;15.73;57.27
77839;SHT31;67034;43.226;27.932;2024-03-02T11:10:02;15.80;57.17
77839;SHT31;67034;43.226;27.932;2024-03-02T11:12:38;15.79;57.00
77839;SHT31;67034;43.226;27.932;2024-03-02T11:15:08;15.93;56.77
77839;SHT31;67034;43.226;27.932;2024-03-02T11:17:35;15.87;56.66
77839;SHT31;67034;43.226;27.932;2024-03-02T11:20:03;15.67;56.74
77839;SHT31;67034;43.226;27.932;2024-03-02T11:22:29;15.45;57.05
77839;SHT31;67034;43.226;27.932;2024-03-02T11:24:55;15.32;57.51
77839;SHT31;67034;43.226;27.932;2024-03-02T11:30:52;15.19;57.62
77839;SHT31;67034;43.226;27.932;2024-03-02T11:33:25;15.09;57.81
77839;SHT31;67034;43.226;27.932;2024-03-02T11:35:53;15.17;58.13
77839;SHT31;67034;43.226;27.932;2024-03-02T11:38:18;15.34;57.69
77839;SHT31;67034;43.226;27.932;2024-03-02T11:40:44;15.46;57.65
77839;SHT31;67034;43.226;27.932;2024-03-02T11:43:10;15.63;57.01
77839;SHT31;67034;43.226;27.932;2024-03-02T11:45:36;15.74;56.69
77839;SHT31;67034;43.226;27.932;2024-03-02T11:48:08;15.71;56.83
77839;SHT31;67034;43.226;27.932;2024-03-02T11:50:41;15.79;56.54
77839;SHT31;67034;43.226;27.932;2024-03-02T11:53:08;15.62;56.25
77839;SHT31;67034;43.226;27.932;2024-03-02T11:55:34;15.53;56.32
77839;SHT31;67034;43.226;27.932;2024-03-02T11:58:01;15.36;56.50
77839;SHT31;67034;43.226;27.932;2024-03-02T12:00:27;15.24;56.92
77839;SHT31;67034;43.226;27.932;2024-03-02T12:03:00;15.34;57.12
77839;SHT31;67034;43.226;27.932;2024-03-02T12:05:28;15.56;56.75
77839;SHT31;67034;43.226;27.932;2024-03-02T12:07:56;15.71;56.28
77839;SHT31;67034;43.226;27.932;2024-03-02T12:10:22;15.70;56.01
77839;SHT31;67034;43.226;27.932;2024-03-02T12:12:49;15.69;56.15
77839;SHT31;67034;43.226;27.932;2024-03-02T12:15:23;15.60;56.36
77839;SHT31;67034;43.226;27.932;2024-03-02T12:17:48;15.66;56.47
77839;SHT31;67034;43.226;27.932;2024-03-02T12:20:17;15.77;56.30
77839;SHT31;67034;43.226;27.932;2024-03-02T12:22:44;15.86;56.26
77839;SHT31;67034;43.226;27.932;2024-03-02T12:25:11;16.03;56.08
77839;SHT31;67034;43.226;27.932;2024-03-02T12:27:38;16.13;55.73
77839;SHT31;67034;43.226;27.932;2024-03-02T12:30:05;16.13;55.68
77839;SHT31;67034;43.226;27.932;2024-03-02T12:32:33;16.10;55.62
77839;SHT31;67034;43.226;27.932;2024-03-02T12:34:59;16.03;55.50
77839;SHT31;67034;43.226;27.932;2024-03-02T12:37:26;15.82;55.93
77839;SHT31;67034;43.226;27.932;2024-03-02T12:39:55;15.71;56.35
77839;SHT31;67034;43.226;27.932;2024-03-02T12:42:21;15.62;56.28
77839;SHT31;67034;43.226;27.932;2024-03-02T12:44:46;15.65;56.60
77839;SHT31;67034;43.226;27.932;2024-03-02T12:47:12;15.73;56.35
77839;SHT31;67034;43.226;27.932;2024-03-02T12:49:40;15.79;56.32
77839;SHT31;67034;43.226;27.932;2024-03-02T12:52:06;15.82;56.12
77839;SHT31;67034;43.226;27.932;2024-03-02T12:54:32;15.71;55.83
77839;SHT31;67034;43.226;27.932;2024-03-02T12:57:00;15.47;56.15
77839;SHT31;67034;43.226;27.932;2024-03-02T12:59:25;15.39;56.44
77839;SHT31;67034;43.226;27.932;2024-03-02T13:01:55;15.46;56.42
77839;SHT31;67034;43.226;27.932;2024-03-02T13:04:25;15.43;56.51
77839;SHT31;67034;43.226;27.932;2024-03-02T13:06:51;15.49;56.74
77839;SHT31;67034;43.226;27.932;2024-03-02T13:09:18;15.55;56.96
77839;SHT31;67034;43.226;27.932;2024-03-02T13:11:43;15.52;57.12
77839;SHT31;67034;43.226;27.932;2024-03-02T13:14:11;15.53;57.08
77839;SHT31;67034;43.226;27.932;2024-03-02T13:16:38;15.57;56.74
77839;SHT31;67034;43.226;27.932;2024-03-02T13:19:07;15.59;56.67
77839;SHT31;67034;43.226;27.932;2024-03-02T13:21:33;15.65;56.61
77839;SHT31;67034;43.226;27.932;2024-03-02T13:23:59;15.65;56.24
77839;SHT31;67034;43.226;27.932;2024-03-02T13:26:26;15.76;56.14
77839;SHT31;67034;43.226;27.932;2024-03-02T13:28:51;15.62;55.91
77839;SHT31;67034;43.226;27.932;2024-03-02T13:31:18;15.50;55.64
77839;SHT31;67034;43.226;27.932;2024-03-02T13:33:44;15.66;55.56
77839;SHT31;67034;43.226;27.932;2024-03-02T13:36:10;15.87;55.34
77839;SHT31;67034;43.226;27.932;2024-03-02T13:38:36;15.93;55.22
77839;SHT31;67034;43.226;27.932;2024-03-02T13:41:02;15.91;55.52
77839;SHT31;67034;43.226;27.932;2024-03-02T13:43:27;15.94;55.62
77839;SHT31;67034;43.226;27.932;2024-03-02T13:45:57;16.07;55.48
77839;SHT31;67034;43.226;27.932;2024-03-02T13:48:24;16.01;55.64
77839;SHT31;67034;43.226;27.932;2024-03-02T13:50:53;15.97;55.81
77839;SHT31;67034;43.226;27.932;2024-03-02T13:53:19;16.00;55.92
77839;SHT31;67034;43.226;27.932;2024-03-02T13:55:45;15.82;55.77
77839;SHT31;67034;43.226;27.932;2024-03-02T13:58:11;15.50;56.49
77839;SHT31;67034;43.226;27.932;2024-03-02T14:00:37;15.32;56.81
77839;SHT31;67034;43.226;27.932;2024-03-02T14:03:04;15.31;57.11
77839;SHT31;67034;43.226;27.932;2024-03-02T14:05:32;15.29;56.98
77839;SHT31;67034;43.226;27.932;2024-03-02T14:07:58;15.05;57.41
77839;SHT31;67034;43.226;27.932;2024-03-02T14:10:25;14.91;58.05
77839;SHT31;67034;43.226;27.932;2024-03-02T14:12:52;14.88;58.20
77839;SHT31;67034;43.226;27.932;2024-03-02T14:15:18;14.85;58.11
77839;SHT31;67034;43.226;27.932;2024-03-02T14:17:44;14.57;58.50
77839;SHT31;67034;43.226;27.932;2024-03-02T14:20:10;14.34;58.93
77839;SHT31;67034;43.226;27.932;2024-03-02T14:22:41;14.01;59.43
77839;SHT31;67034;43.226;27.932;2024-03-02T14:25:08;13.89;60.01
77839;SHT31;67034;43.226;27.932;2024-03-02T14:27:33;13.89;60.10
77839;SHT31;67034;43.226;27.932;2024-03-02T14:30:02;13.92;60.14
77839;SHT31;67034;43.226;27.932;2024-03-02T14:32:27;13.83;60.07
77839;SHT31;67034;43.226;27.932;2024-03-02T14:34:53;13.54;60.55
77839;SHT31;67034;43.226;27.932;2024-03-02T14:37:19;13.20;61.30
77839;SHT31;67034;43.226;27.932;2024-03-02T14:39:46;13.07;61.72
77839;SHT31;67034;43.226;27.932;2024-03-02T14:42:12;12.99;61.99
77839;SHT31;67034;43.226;27.932;2024-03-02T14:44:37;13.07;61.77
77839;SHT31;67034;43.226;27.932;2024-03-02T14:47:04;13.16;61.47
77839;SHT31;67034;43.226;27.932;2024-03-02T14:49:30;13.02;61.84
77839;SHT31;67034;43.226;27.932;2024-03-02T14:51:56;12.93;62.06
77839;SHT31;67034;43.226;27.932;2024-03-02T14:54:21;12.91;62.23
77839;SHT31;67034;43.226;27.932;2024-03-02T14:56:49;12.97;62.17
77839;SHT31;67034;43.226;27.932;2024-03-02T14:59:15;12.89;62.49
77839;SHT31;67034;43.226;27.932;2024-03-02T15:01:41;12.93;62.25
77839;SHT31;67034;43.226;27.932;2024-03-02T15:04:07;12.93;62.13
77839;SHT31;67034;43.226;27.932;2024-03-02T15:06:33;12.72;62.67
77839;SHT31;67034;43.226;27.932;2024-03-02T15:08:58;12.66;62.67
77839;SHT31;67034;43.226;27.932;2024-03-02T15:11:24;12.59;62.69
77839;SHT31;67034;43.226;27.932;2024-03-02T15:13:52;12.54;63.09
77839;SHT31;67034;43.226;27.932;2024-03-02T15:16:17;12.55;63.09